createdAt,value
2019-01-29T00:00:04.581Z,20.90
2019-01-29T00:01:04.569Z,21.90
2019-01-29T00:02:04.562Z,21.40
2019-01-29T00:03:04.550Z,21.20
2019-01-29T00:04:04.542Z,19.90
2019-01-29T00:05:04.531Z,19.90
2019-01-29T00:06:04.522Z,21.30
2019-01-29T00:07:04.595Z,20.70
2019-01-29T00:08:04.502Z,20.30
2019-01-29T00:09:04.492Z,19.30
2019-01-29T00:10:04.481Z,19.10
2019-01-29T00:11:04.466Z,21.00
2019-01-29T00:12:04.460Z,21.10
2019-01-29T00:13:04.450Z,19.90
2019-01-29T00:14:04.443Z,19.60
2019-01-29T00:15:04.430Z,20.30
2019-01-29T00:16:04.529Z,20.10
2019-01-29T00:17:04.412Z,19.90
2019-01-29T00:18:04.499Z,19.90
2019-01-29T00:19:04.390Z,20.80
2019-01-29T00:20:04.378Z,21.20
2019-01-29T00:21:04.372Z,19.60
2019-01-29T00:22:04.360Z,19.30
2019-01-29T00:23:04.349Z,20.00
2019-01-29T00:24:04.339Z,20.10
2019-01-29T00:25:04.327Z,21.30
2019-01-29T00:26:04.319Z,20.90
2019-01-29T00:27:04.311Z,20.60
2019-01-29T00:28:04.297Z,21.90
2019-01-29T00:29:04.290Z,21.10
2019-01-29T00:30:04.279Z,21.20
2019-01-29T00:31:04.267Z,20.00
2019-01-29T00:32:04.256Z,20.70
2019-01-29T00:33:04.248Z,22.90
2019-01-29T00:34:04.234Z,24.50
2019-01-29T00:35:04.228Z,22.10
2019-01-29T00:36:04.211Z,22.30
2019-01-29T00:37:04.205Z,23.50
2019-01-29T00:38:04.196Z,24.50
2019-01-29T00:39:04.184Z,24.80
2019-01-29T00:40:04.175Z,23.60
2019-01-29T00:41:04.169Z,25.70
2019-01-29T00:42:04.157Z,25.10
2019-01-29T00:43:04.142Z,25.30
2019-01-29T00:44:04.136Z,24.90
2019-01-29T00:45:04.124Z,24.80
2019-01-29T00:46:04.121Z,25.70
2019-01-29T00:47:04.103Z,25.40
2019-01-29T00:48:04.088Z,27.10
2019-01-29T00:49:04.083Z,27.20
2019-01-29T00:50:04.082Z,26.10
2019-01-29T00:51:04.061Z,25.60
2019-01-29T00:52:04.051Z,24.20
2019-01-29T00:53:04.039Z,25.70
2019-01-29T00:54:04.031Z,25.90
2019-01-29T00:55:04.020Z,26.00
2019-01-29T00:56:04.011Z,26.60
2019-01-29T00:57:03.999Z,25.40
2019-01-29T00:58:03.992Z,26.00
2019-01-29T00:59:03.980Z,25.20
2019-01-29T01:00:03.967Z,25.00
2019-01-29T01:01:03.959Z,22.20
2019-01-29T01:02:03.947Z,22.10
2019-01-29T01:03:03.935Z,20.10
2019-01-29T01:04:03.926Z,20.90
2019-01-29T01:05:03.917Z,18.00
2019-01-29T01:06:03.908Z,19.10
2019-01-29T01:07:03.895Z,18.20
2019-01-29T01:08:03.884Z,17.60
2019-01-29T01:09:03.888Z,18.70
2019-01-29T01:10:03.866Z,19.10
2019-01-29T01:11:03.851Z,18.40
2019-01-29T01:12:03.841Z,19.60
2019-01-29T01:13:03.832Z,24.20
2019-01-29T01:14:03.820Z,21.90
2019-01-29T01:15:03.811Z,20.00
2019-01-29T01:16:03.799Z,19.80
2019-01-29T01:17:03.789Z,21.00
2019-01-29T01:18:03.779Z,20.70
2019-01-29T01:19:03.776Z,18.80
2019-01-29T01:20:03.759Z,20.30
2019-01-29T01:21:03.746Z,21.20
2019-01-29T01:22:03.736Z,19.10
2019-01-29T01:23:03.726Z,21.30
2019-01-29T01:24:03.714Z,24.20
2019-01-29T01:25:03.703Z,20.40
2019-01-29T01:26:03.694Z,23.20
2019-01-29T01:27:03.684Z,24.50
2019-01-29T01:28:03.670Z,23.50
2019-01-29T01:29:03.662Z,23.70
2019-01-29T01:30:03.656Z,22.50
2019-01-29T01:31:03.644Z,22.70
2019-01-29T01:32:03.629Z,22.90
2019-01-29T01:33:03.621Z,21.80
2019-01-29T01:34:03.608Z,23.40
2019-01-29T01:35:03.597Z,20.40
2019-01-29T01:36:03.596Z,21.60
2019-01-29T01:37:03.575Z,22.30
2019-01-29T01:38:03.565Z,21.70
2019-01-29T01:39:03.558Z,20.40
2019-01-29T01:40:03.544Z,19.00
2019-01-29T01:41:03.533Z,20.20
2019-01-29T01:42:03.528Z,18.90
2019-01-29T01:43:03.511Z,16.20
2019-01-29T01:44:03.500Z,15.90
2019-01-29T01:45:03.492Z,16.00
2019-01-29T01:46:03.480Z,15.20
2019-01-29T01:47:03.469Z,15.30
2019-01-29T01:48:03.460Z,16.00
2019-01-29T01:49:03.446Z,15.70
2019-01-29T01:50:03.438Z,14.50
2019-01-29T01:51:03.429Z,16.40
2019-01-29T01:52:03.417Z,16.40
2019-01-29T01:53:03.404Z,15.50
2019-01-29T01:54:03.396Z,16.40
2019-01-29T01:55:03.378Z,14.90
2019-01-29T01:56:03.368Z,15.00
2019-01-29T01:57:03.360Z,14.30
2019-01-29T01:58:03.352Z,14.20
2019-01-29T01:59:03.340Z,15.00
2019-01-29T02:00:03.328Z,13.00
2019-01-29T02:01:03.316Z,12.40
2019-01-29T02:02:03.326Z,13.10
2019-01-29T02:03:03.291Z,13.90
2019-01-29T02:04:03.288Z,11.80
2019-01-29T02:05:03.277Z,11.80
2019-01-29T02:06:03.262Z,12.20
2019-01-29T02:07:03.251Z,12.70
2019-01-29T02:08:03.239Z,12.80
2019-01-29T02:09:03.230Z,10.70
2019-01-29T02:10:03.216Z,11.10
2019-01-29T02:11:03.207Z,11.10
2019-01-29T02:12:03.200Z,10.50
2019-01-29T02:13:03.185Z,11.30
2019-01-29T02:14:03.171Z,9.40
2019-01-29T02:15:03.170Z,10.80
2019-01-29T02:16:03.152Z,10.10
2019-01-29T02:17:03.141Z,10.80
2019-01-29T02:18:03.132Z,10.80
2019-01-29T02:19:03.119Z,10.80
2019-01-29T02:20:03.112Z,11.40
2019-01-29T02:21:03.096Z,11.70
2019-01-29T02:22:03.086Z,12.00
2019-01-29T02:23:08.235Z,11.20
2019-01-29T02:24:03.064Z,11.50
2019-01-29T02:25:03.052Z,10.70
2019-01-29T02:26:03.041Z,11.10
2019-01-29T02:27:03.095Z,9.70
2019-01-29T02:28:03.019Z,10.20
2019-01-29T02:29:03.010Z,10.50
2019-01-29T02:30:02.997Z,10.20
2019-01-29T02:31:02.985Z,10.10
2019-01-29T02:32:02.975Z,9.70
2019-01-29T02:33:02.963Z,10.10
2019-01-29T02:34:02.954Z,10.80
2019-01-29T02:35:02.941Z,9.90
2019-01-29T02:36:02.933Z,11.00
2019-01-29T02:37:02.920Z,11.00
2019-01-29T02:38:02.909Z,11.00
2019-01-29T02:39:02.897Z,10.70
2019-01-29T02:40:02.887Z,9.80
2019-01-29T02:41:02.878Z,10.20
2019-01-29T02:42:02.864Z,10.20
2019-01-29T02:43:02.851Z,10.50
2019-01-29T02:44:02.847Z,9.40
2019-01-29T02:45:02.830Z,10.00
2019-01-29T02:46:02.821Z,9.90
2019-01-29T02:47:02.820Z,9.90
2019-01-29T02:48:02.798Z,9.70
2019-01-29T02:49:02.786Z,9.70
2019-01-29T02:50:02.777Z,10.90
2019-01-29T02:51:02.765Z,9.80
2019-01-29T02:52:02.755Z,9.70
2019-01-29T02:53:02.742Z,9.50
2019-01-29T02:54:02.733Z,9.50
2019-01-29T02:55:02.723Z,9.80
2019-01-29T02:56:02.707Z,10.10
2019-01-29T02:57:02.698Z,10.50
2019-01-29T02:58:02.684Z,10.80
2019-01-29T02:59:02.674Z,9.40
2019-01-29T03:00:02.663Z,10.80
2019-01-29T03:01:02.653Z,11.00
2019-01-29T03:02:02.640Z,11.00
2019-01-29T03:03:02.629Z,11.30
2019-01-29T03:04:02.617Z,10.20
2019-01-29T03:05:02.609Z,10.70
2019-01-29T03:06:02.598Z,10.70
2019-01-29T03:07:02.588Z,10.50
2019-01-29T03:08:02.574Z,10.70
2019-01-29T03:09:02.560Z,10.40
2019-01-29T03:10:02.552Z,10.20
2019-01-29T03:11:02.562Z,9.80
2019-01-29T03:12:02.530Z,10.10
2019-01-29T03:13:02.517Z,10.10
2019-01-29T03:14:02.503Z,9.90
2019-01-29T03:15:02.493Z,9.90
2019-01-29T03:16:02.481Z,10.80
2019-01-29T03:17:02.481Z,10.30
2019-01-29T03:18:02.464Z,10.30
2019-01-29T03:19:02.447Z,10.30
2019-01-29T03:20:02.436Z,10.50
2019-01-29T03:21:02.438Z,11.50
2019-01-29T03:22:02.416Z,10.60
2019-01-29T03:23:02.404Z,10.90
2019-01-29T03:24:02.392Z,10.50
2019-01-29T03:25:02.379Z,9.80
2019-01-29T03:26:02.375Z,11.60
2019-01-29T03:27:02.357Z,12.10
2019-01-29T03:28:02.347Z,12.00
2019-01-29T03:29:02.338Z,12.50
2019-01-29T03:30:02.329Z,12.60
2019-01-29T03:31:02.330Z,13.40
2019-01-29T03:32:02.300Z,13.30
2019-01-29T03:33:02.293Z,12.10
2019-01-29T03:34:02.280Z,13.60
2019-01-29T03:35:02.413Z,12.70
2019-01-29T03:36:02.255Z,12.90
2019-01-29T03:37:02.281Z,13.00
2019-01-29T03:38:02.232Z,14.90
2019-01-29T03:39:02.217Z,13.80
2019-01-29T03:40:02.222Z,13.70
2019-01-29T03:41:02.200Z,13.70
2019-01-29T03:42:02.183Z,13.30
2019-01-29T03:43:02.178Z,13.70
2019-01-29T03:44:02.160Z,12.90
2019-01-29T03:45:02.150Z,13.40
2019-01-29T03:46:02.138Z,12.90
2019-01-29T03:47:02.131Z,14.30
2019-01-29T03:48:02.116Z,15.00
2019-01-29T03:49:02.105Z,14.80
2019-01-29T03:50:02.090Z,15.20
2019-01-29T03:51:02.093Z,14.90
2019-01-29T03:52:02.067Z,14.50
2019-01-29T03:53:02.050Z,15.00
2019-01-29T03:54:02.045Z,14.80
2019-01-29T03:55:02.031Z,14.20
2019-01-29T03:56:02.025Z,14.10
2019-01-29T03:57:02.009Z,14.50
2019-01-29T03:58:01.998Z,14.40
2019-01-29T03:59:01.986Z,14.70
2019-01-29T04:00:01.978Z,14.70
2019-01-29T04:01:01.978Z,14.60
2019-01-29T04:02:01.951Z,16.10
2019-01-29T04:03:01.939Z,15.10
2019-01-29T04:04:01.931Z,15.10
2019-01-29T04:05:01.924Z,13.90
2019-01-29T04:06:01.905Z,14.50
2019-01-29T04:07:01.892Z,14.40
2019-01-29T04:08:01.881Z,15.50
2019-01-29T04:09:01.876Z,15.50
2019-01-29T04:10:01.858Z,16.20
2019-01-29T04:11:01.843Z,15.20
2019-01-29T04:12:01.835Z,15.80
2019-01-29T04:13:01.826Z,16.20
2019-01-29T04:14:01.810Z,15.50
2019-01-29T04:15:01.798Z,14.80
2019-01-29T04:16:01.786Z,15.80
2019-01-29T04:17:01.778Z,14.30
2019-01-29T04:18:01.769Z,15.50
2019-01-29T04:19:01.756Z,15.90
2019-01-29T04:20:01.740Z,14.90
2019-01-29T04:21:01.729Z,15.60
2019-01-29T04:22:01.719Z,16.60
2019-01-29T04:23:01.721Z,16.30
2019-01-29T04:24:01.694Z,16.60
2019-01-29T04:25:01.693Z,16.90
2019-01-29T04:26:01.678Z,15.40
2019-01-29T04:27:01.657Z,14.70
2019-01-29T04:28:01.646Z,15.30
2019-01-29T04:29:01.635Z,16.60
2019-01-29T04:30:01.624Z,15.90
2019-01-29T04:31:01.612Z,16.10
2019-01-29T04:32:01.618Z,16.10
2019-01-29T04:33:01.590Z,16.20
2019-01-29T04:34:01.574Z,15.80
2019-01-29T04:35:01.566Z,15.30
2019-01-29T04:36:01.551Z,16.70
2019-01-29T04:37:01.542Z,16.70
2019-01-29T04:38:01.529Z,16.90
2019-01-29T04:39:01.515Z,16.60
2019-01-29T04:40:01.507Z,16.90
2019-01-29T04:41:01.497Z,17.40
2019-01-29T04:42:01.485Z,17.00
2019-01-29T04:43:01.470Z,17.30
2019-01-29T04:44:01.460Z,17.40
2019-01-29T04:45:01.445Z,17.30
2019-01-29T04:46:01.434Z,16.10
2019-01-29T04:47:01.423Z,16.60
2019-01-29T04:48:01.411Z,17.00
2019-01-29T04:49:01.400Z,16.50
2019-01-29T04:50:01.394Z,17.70
2019-01-29T04:51:01.373Z,16.90
2019-01-29T04:52:01.364Z,14.80
2019-01-29T04:53:01.353Z,15.50
2019-01-29T04:54:01.344Z,16.00
2019-01-29T04:55:01.329Z,16.10
2019-01-29T04:56:01.317Z,15.50
2019-01-29T04:57:01.304Z,16.00
2019-01-29T04:58:01.292Z,15.20
2019-01-29T04:59:01.283Z,15.50
2019-01-29T05:00:01.274Z,13.50
2019-01-29T05:01:01.261Z,14.90
2019-01-29T05:02:01.247Z,14.80
2019-01-29T05:03:01.239Z,14.10
2019-01-29T05:04:01.222Z,14.70
2019-01-29T05:05:01.217Z,14.00
2019-01-29T05:06:01.201Z,15.10
2019-01-29T05:07:01.190Z,14.80
2019-01-29T05:08:01.181Z,14.60
2019-01-29T05:09:01.166Z,14.60
2019-01-29T05:10:01.153Z,15.50
2019-01-29T05:11:01.152Z,15.30
2019-01-29T05:12:01.134Z,13.60
2019-01-29T05:13:01.117Z,15.00
2019-01-29T05:14:01.108Z,14.90
2019-01-29T05:15:01.103Z,13.50
2019-01-29T05:16:01.087Z,12.80
2019-01-29T05:17:01.077Z,13.50
2019-01-29T05:18:01.065Z,13.60
2019-01-29T05:19:01.042Z,13.70
2019-01-29T05:20:01.038Z,13.40
2019-01-29T05:21:01.022Z,13.70
2019-01-29T05:22:01.012Z,13.80
2019-01-29T05:23:01.000Z,13.60
2019-01-29T05:24:06.592Z,14.10
2019-01-29T05:25:01.074Z,13.20
2019-01-29T05:26:00.967Z,13.50
2019-01-29T05:27:00.951Z,13.10
2019-01-29T05:28:00.943Z,13.20
2019-01-29T05:29:00.928Z,13.10
2019-01-29T05:30:00.922Z,12.80
2019-01-29T05:31:00.905Z,12.00
2019-01-29T05:32:00.894Z,13.30
2019-01-29T05:33:00.882Z,12.40
2019-01-29T05:34:00.868Z,12.20
2019-01-29T05:35:00.860Z,12.70
2019-01-29T05:36:00.844Z,12.60
2019-01-29T05:37:00.834Z,13.30
2019-01-29T05:38:00.840Z,13.70
2019-01-29T05:39:00.815Z,13.60
2019-01-29T05:40:00.799Z,13.60
2019-01-29T05:41:00.785Z,14.10
2019-01-29T05:42:00.777Z,13.20
2019-01-29T05:43:00.762Z,12.90
2019-01-29T05:44:00.764Z,13.10
2019-01-29T05:45:00.740Z,13.50
2019-01-29T05:46:00.726Z,14.10
2019-01-29T05:47:00.717Z,13.90
2019-01-29T05:48:00.700Z,14.20
2019-01-29T05:49:00.690Z,14.20
2019-01-29T05:50:00.678Z,14.20
2019-01-29T05:51:00.672Z,13.70
2019-01-29T05:52:00.652Z,14.50
2019-01-29T05:53:00.640Z,13.90
2019-01-29T05:54:00.628Z,14.70
2019-01-29T05:55:00.620Z,14.50
2019-01-29T05:56:00.609Z,14.00
2019-01-29T05:57:00.589Z,14.10
2019-01-29T05:58:00.581Z,13.20
2019-01-29T05:59:00.567Z,13.20
2019-01-29T06:00:00.555Z,13.30
2019-01-29T06:01:00.545Z,12.90
2019-01-29T06:02:00.535Z,13.50
2019-01-29T06:03:00.518Z,13.00
2019-01-29T06:04:00.506Z,13.40
2019-01-29T06:05:00.494Z,13.60
2019-01-29T06:06:00.483Z,13.00
2019-01-29T06:07:00.468Z,14.40
2019-01-29T06:08:00.458Z,13.90
2019-01-29T06:09:00.448Z,13.70
2019-01-29T06:10:00.431Z,13.00
2019-01-29T06:11:00.421Z,12.80
2019-01-29T06:12:00.481Z,12.60
2019-01-29T06:13:00.403Z,13.00
2019-01-29T06:14:00.385Z,13.10
2019-01-29T06:15:00.378Z,13.00
2019-01-29T06:16:00.361Z,13.00
2019-01-29T06:17:00.346Z,12.10
2019-01-29T06:18:00.333Z,12.10
2019-01-29T06:19:00.322Z,12.40
2019-01-29T06:20:00.310Z,12.40
2019-01-29T06:21:00.297Z,12.60
2019-01-29T06:22:00.287Z,12.40
2019-01-29T06:23:00.273Z,12.30
2019-01-29T06:24:00.265Z,11.50
2019-01-29T06:25:00.258Z,12.50
2019-01-29T06:26:00.238Z,11.90
2019-01-29T06:27:00.218Z,12.00
2019-01-29T06:28:00.209Z,11.80
2019-01-29T06:29:00.198Z,11.80
2019-01-29T06:30:00.194Z,11.80
2019-01-29T06:31:00.174Z,11.00
2019-01-29T06:32:00.160Z,11.60
2019-01-29T06:33:00.148Z,12.30
2019-01-29T06:34:00.138Z,11.80
2019-01-29T06:35:00.327Z,11.70
2019-01-29T06:36:00.111Z,11.80
2019-01-29T06:37:00.096Z,11.20
2019-01-29T06:38:00.086Z,11.10
2019-01-29T06:39:00.071Z,10.90
2019-01-29T06:40:00.066Z,10.30
2019-01-29T06:41:00.047Z,9.60
2019-01-29T06:42:00.034Z,10.30
2019-01-29T06:43:00.024Z,10.20
2019-01-29T06:44:00.010Z,10.10
2019-01-29T06:45:00.000Z,10.20
2019-01-29T06:45:59.985Z,10.00
2019-01-29T06:46:59.970Z,10.10
2019-01-29T06:47:59.960Z,10.60
2019-01-29T06:48:59.947Z,10.30
2019-01-29T06:49:59.936Z,10.80
2019-01-29T06:50:59.921Z,10.90
2019-01-29T06:51:59.912Z,10.90
2019-01-29T06:52:59.895Z,10.80
2019-01-29T06:53:59.887Z,10.90
2019-01-29T06:54:59.871Z,11.10
2019-01-29T06:55:59.857Z,10.70
2019-01-29T06:56:59.848Z,11.00
2019-01-29T06:57:59.835Z,11.10
2019-01-29T06:58:59.821Z,12.50
2019-01-29T06:59:59.807Z,11.40
2019-01-29T07:00:59.794Z,11.00
2019-01-29T07:01:59.782Z,10.60
2019-01-29T07:02:59.775Z,10.30
2019-01-29T07:03:59.808Z,10.90
2019-01-29T07:04:59.746Z,10.90
2019-01-29T07:05:59.732Z,10.10
2019-01-29T07:06:59.720Z,11.10
2019-01-29T07:07:59.707Z,10.60
2019-01-29T07:08:59.693Z,10.30
2019-01-29T07:09:59.682Z,9.50
2019-01-29T07:10:59.681Z,10.40
2019-01-29T07:11:59.660Z,9.20
2019-01-29T07:12:59.651Z,9.30
2019-01-29T07:13:59.635Z,9.00
2019-01-29T07:14:59.619Z,9.50
2019-01-29T07:15:59.610Z,9.90
2019-01-29T07:16:59.595Z,9.50
2019-01-29T07:17:59.575Z,8.80
2019-01-29T07:18:59.567Z,10.30
2019-01-29T07:19:59.561Z,10.00
2019-01-29T07:20:59.541Z,9.50
2019-01-29T07:21:59.536Z,9.60
2019-01-29T07:22:59.518Z,9.10
2019-01-29T07:23:59.507Z,9.00
2019-01-29T07:24:59.493Z,10.20
2019-01-29T07:25:59.483Z,9.20
2019-01-29T07:26:59.468Z,9.40
2019-01-29T07:27:59.457Z,10.90
2019-01-29T07:28:59.445Z,9.40
2019-01-29T07:29:59.432Z,13.00
2019-01-29T07:30:59.420Z,11.20
2019-01-29T07:31:59.412Z,12.80
2019-01-29T07:32:59.395Z,10.30
2019-01-29T07:33:59.383Z,11.70
2019-01-29T07:34:59.371Z,11.70
2019-01-29T07:35:59.359Z,11.50
2019-01-29T07:36:59.354Z,11.00
2019-01-29T07:37:59.336Z,12.50
2019-01-29T07:38:59.320Z,15.10
2019-01-29T07:39:59.315Z,11.30
2019-01-29T07:40:59.305Z,11.90
2019-01-29T07:41:59.287Z,13.30
2019-01-29T07:42:59.268Z,11.60
2019-01-29T07:43:59.259Z,12.50
2019-01-29T07:44:59.251Z,13.80
2019-01-29T07:45:59.249Z,13.40
2019-01-29T07:46:59.224Z,13.10
2019-01-29T07:47:59.214Z,11.80
2019-01-29T07:48:59.202Z,11.90
2019-01-29T07:49:59.197Z,13.00
2019-01-29T07:50:59.174Z,13.50
2019-01-29T07:51:59.166Z,12.40
2019-01-29T07:52:59.150Z,13.40
2019-01-29T07:53:59.140Z,13.60
2019-01-29T07:54:59.126Z,13.90
2019-01-29T07:55:59.115Z,14.20
2019-01-29T07:56:59.104Z,14.90
2019-01-29T07:57:59.090Z,14.20
2019-01-29T07:58:59.078Z,13.20
2019-01-29T07:59:59.066Z,12.30
2019-01-29T08:00:59.054Z,14.10
2019-01-29T08:01:59.045Z,29.80
2019-01-29T08:02:59.030Z,21.90
2019-01-29T08:03:59.018Z,15.00
2019-01-29T08:04:59.007Z,14.20
2019-01-29T08:05:58.997Z,15.80
2019-01-29T08:06:58.983Z,16.00
2019-01-29T08:07:58.973Z,15.00
2019-01-29T08:08:58.960Z,15.80
2019-01-29T08:09:58.951Z,16.20
2019-01-29T08:10:58.935Z,14.90
2019-01-29T08:11:58.924Z,16.40
2019-01-29T08:12:58.912Z,17.60
2019-01-29T08:13:58.899Z,20.00
2019-01-29T08:14:58.887Z,16.30
2019-01-29T08:15:58.953Z,17.10
2019-01-29T08:16:58.869Z,18.80
2019-01-29T08:17:58.852Z,17.50
2019-01-29T08:18:58.848Z,18.60
2019-01-29T08:19:58.829Z,17.70
2019-01-29T08:20:58.817Z,19.00
2019-01-29T08:21:58.807Z,19.80
2019-01-29T08:22:58.791Z,18.70
2019-01-29T08:23:58.780Z,17.50
2019-01-29T08:25:01.736Z,17.20
2019-01-29T08:25:58.758Z,19.00
2019-01-29T08:26:58.747Z,18.90
2019-01-29T08:27:58.733Z,18.10
2019-01-29T08:28:58.723Z,16.90
2019-01-29T08:29:58.713Z,15.90
2019-01-29T08:30:58.696Z,16.50
2019-01-29T08:31:58.687Z,18.00
2019-01-29T08:32:58.677Z,16.80
2019-01-29T08:33:58.664Z,16.20
2019-01-29T08:34:58.654Z,16.50
2019-01-29T08:35:58.640Z,17.70
2019-01-29T08:36:58.630Z,15.70
2019-01-29T08:37:58.617Z,14.10
2019-01-29T08:38:58.607Z,14.70
2019-01-29T08:39:58.597Z,16.40
2019-01-29T08:40:58.584Z,14.50
2019-01-29T08:41:58.571Z,15.50
2019-01-29T08:42:58.628Z,16.50
2019-01-29T08:43:58.546Z,16.60
2019-01-29T08:44:58.529Z,13.70
2019-01-29T08:45:59.581Z,14.30
2019-01-29T08:46:58.514Z,16.00
2019-01-29T08:47:58.505Z,13.40
2019-01-29T08:48:58.489Z,14.90
2019-01-29T08:49:58.479Z,15.60
2019-01-29T08:50:58.467Z,14.50
2019-01-29T08:51:58.457Z,12.50
2019-01-29T08:52:58.447Z,15.60
2019-01-29T08:53:58.434Z,15.00
2019-01-29T08:54:58.426Z,12.90
2019-01-29T08:55:58.410Z,14.30
2019-01-29T08:56:58.399Z,14.30
2019-01-29T08:57:58.387Z,14.20
2019-01-29T08:58:58.376Z,14.80
2019-01-29T08:59:58.363Z,15.30
2019-01-29T09:00:58.355Z,15.60
2019-01-29T09:01:58.344Z,12.60
2019-01-29T09:02:58.330Z,14.50
2019-01-29T09:03:58.320Z,13.40
2019-01-29T09:04:58.310Z,14.20
2019-01-29T09:05:58.303Z,14.00
2019-01-29T09:06:58.288Z,12.80
2019-01-29T09:07:58.269Z,15.10
2019-01-29T09:08:58.263Z,13.50
2019-01-29T09:09:58.253Z,15.40
2019-01-29T09:10:58.243Z,12.60
2019-01-29T09:11:58.232Z,14.10
2019-01-29T09:12:58.218Z,12.60
2019-01-29T09:13:58.208Z,12.00
2019-01-29T09:14:58.197Z,11.90
2019-01-29T09:15:58.184Z,13.70
2019-01-29T09:16:58.172Z,14.30
2019-01-29T09:17:58.162Z,14.00
2019-01-29T09:18:58.149Z,13.30
2019-01-29T09:19:58.141Z,13.30
2019-01-29T09:20:58.129Z,11.70
2019-01-29T09:21:58.119Z,13.70
2019-01-29T09:22:58.108Z,13.00
2019-01-29T09:23:58.095Z,12.40
2019-01-29T09:24:58.083Z,14.10
2019-01-29T09:25:58.072Z,13.20
2019-01-29T09:26:58.062Z,13.90
2019-01-29T09:27:58.049Z,14.50
2019-01-29T09:28:58.041Z,12.10
2019-01-29T09:29:58.029Z,14.60
2019-01-29T09:30:58.017Z,13.10
2019-01-29T09:31:58.007Z,11.40
2019-01-29T09:32:58.001Z,13.60
2019-01-29T09:33:57.987Z,14.40
2019-01-29T09:34:57.973Z,13.30
2019-01-29T09:35:57.963Z,14.20
2019-01-29T09:36:57.957Z,12.70
2019-01-29T09:37:57.942Z,15.20
2019-01-29T09:38:57.931Z,13.60
2019-01-29T09:39:57.919Z,15.80
2019-01-29T09:40:57.910Z,16.10
2019-01-29T09:41:57.900Z,12.80
2019-01-29T09:42:57.887Z,15.80
2019-01-29T09:43:57.878Z,15.80
2019-01-29T09:44:57.866Z,14.20
2019-01-29T09:45:57.856Z,16.20
2019-01-29T09:46:57.843Z,13.50
2019-01-29T09:47:57.833Z,15.90
2019-01-29T09:48:57.824Z,16.20
2019-01-29T09:49:57.818Z,14.30
2019-01-29T09:50:57.801Z,15.00
2019-01-29T09:51:57.791Z,14.50
2019-01-29T09:52:57.783Z,15.60
2019-01-29T09:53:57.769Z,12.40
2019-01-29T09:54:57.759Z,15.40
2019-01-29T09:55:57.749Z,14.50
2019-01-29T09:56:57.731Z,13.00
2019-01-29T09:57:57.733Z,12.90
2019-01-29T09:58:57.716Z,14.60
2019-01-29T09:59:57.706Z,15.50
2019-01-29T10:00:57.700Z,14.80
2019-01-29T10:01:57.689Z,13.00
2019-01-29T10:02:57.674Z,13.00
2019-01-29T10:03:57.664Z,14.70
2019-01-29T10:04:57.666Z,16.50
2019-01-29T10:05:57.636Z,13.00
2019-01-29T10:06:57.632Z,15.20
2019-01-29T10:07:57.627Z,12.70
2019-01-29T10:08:57.611Z,12.90
2019-01-29T10:09:57.605Z,13.10
2019-01-29T10:10:57.592Z,16.20
2019-01-29T10:11:57.580Z,16.90
2019-01-29T10:12:57.568Z,20.80
2019-01-29T10:13:57.560Z,13.30
2019-01-29T10:14:57.548Z,15.90
2019-01-29T10:15:57.536Z,15.70
2019-01-29T10:16:57.527Z,16.30
2019-01-29T10:17:57.517Z,16.20
2019-01-29T10:18:57.507Z,14.50
2019-01-29T10:20:02.472Z,15.50
2019-01-29T10:20:57.487Z,12.80
2019-01-29T10:21:57.476Z,14.20
2019-01-29T10:22:57.465Z,12.60
2019-01-29T10:23:57.455Z,13.20
2019-01-29T10:24:57.444Z,12.90
2019-01-29T10:25:57.434Z,14.70
2019-01-29T10:26:57.424Z,12.60
2019-01-29T10:27:57.413Z,13.90
2019-01-29T10:28:57.403Z,12.60
2019-01-29T10:29:57.395Z,13.40
2019-01-29T10:30:57.381Z,12.30
2019-01-29T10:31:57.372Z,12.70
2019-01-29T10:32:57.361Z,14.60
2019-01-29T10:33:57.353Z,12.90
2019-01-29T10:34:57.340Z,13.90
2019-01-29T10:35:57.329Z,10.90
2019-01-29T10:36:57.424Z,18.20
2019-01-29T10:37:57.309Z,18.80
2019-01-29T10:38:57.302Z,17.30
2019-01-29T10:39:57.300Z,19.60
2019-01-29T10:40:57.281Z,26.70
2019-01-29T10:41:57.266Z,29.30
2019-01-29T10:42:57.257Z,27.00
2019-01-29T10:43:57.245Z,19.90
2019-01-29T10:44:57.239Z,26.70
2019-01-29T10:45:57.227Z,19.40
2019-01-29T10:46:57.213Z,14.10
2019-01-29T10:47:57.203Z,15.10
2019-01-29T10:48:57.193Z,13.80
2019-01-29T10:49:57.184Z,13.50
2019-01-29T10:50:57.176Z,16.20
2019-01-29T10:51:57.164Z,18.30
2019-01-29T10:52:57.152Z,17.00
2019-01-29T10:53:57.145Z,13.70
2019-01-29T10:54:58.074Z,13.40
2019-01-29T10:55:57.122Z,15.80
2019-01-29T10:56:57.110Z,13.50
2019-01-29T10:57:57.099Z,11.70
2019-01-29T10:58:57.089Z,15.60
2019-01-29T10:59:57.081Z,14.50
2019-01-29T11:00:57.077Z,14.00
2019-01-29T11:01:57.059Z,12.80
2019-01-29T11:02:57.048Z,14.10
2019-01-29T11:03:57.038Z,12.20
2019-01-29T11:04:57.390Z,13.80
2019-01-29T11:05:57.092Z,12.40
2019-01-29T11:06:57.006Z,19.20
2019-01-29T11:07:57.000Z,41.40
2019-01-29T11:08:56.986Z,66.70
2019-01-29T11:09:56.974Z,116.40
2019-01-29T11:10:56.964Z,81.10
2019-01-29T11:11:56.952Z,35.80
2019-01-29T11:12:56.944Z,25.80
2019-01-29T11:13:56.932Z,15.30
2019-01-29T11:14:56.921Z,11.10
2019-01-29T11:15:56.913Z,26.60
2019-01-29T11:16:56.904Z,21.80
2019-01-29T11:17:56.893Z,30.20
2019-01-29T11:19:03.149Z,20.20
2019-01-29T11:19:56.870Z,20.10
2019-01-29T11:20:56.862Z,15.60
2019-01-29T11:21:56.852Z,15.20
2019-01-29T11:22:56.842Z,15.20
2019-01-29T11:23:56.832Z,14.50
2019-01-29T11:24:56.827Z,14.10
2019-01-29T11:25:56.813Z,12.80
2019-01-29T11:26:56.799Z,13.50
2019-01-29T11:27:56.791Z,13.80
2019-01-29T11:28:56.781Z,16.40
2019-01-29T11:29:56.773Z,13.90
2019-01-29T11:30:56.758Z,15.00
2019-01-29T11:31:56.747Z,13.80
2019-01-29T11:32:56.741Z,12.60
2019-01-29T11:33:56.729Z,16.90
2019-01-29T11:34:56.719Z,15.10
2019-01-29T11:35:56.709Z,16.90
2019-01-29T11:36:56.700Z,18.60
2019-01-29T11:37:56.687Z,13.50
2019-01-29T11:38:56.676Z,13.60
2019-01-29T11:39:56.667Z,15.20
2019-01-29T11:40:56.662Z,13.70
2019-01-29T11:41:56.647Z,15.80
2019-01-29T11:42:56.635Z,15.70
2019-01-29T11:43:56.626Z,14.50
2019-01-29T11:44:56.617Z,15.20
2019-01-29T11:45:56.607Z,14.80
2019-01-29T11:46:56.595Z,15.30
2019-01-29T11:47:56.588Z,15.70
2019-01-29T11:48:56.576Z,16.40
2019-01-29T11:49:56.565Z,13.80
2019-01-29T11:50:56.555Z,15.30
2019-01-29T11:51:56.546Z,14.80
2019-01-29T11:52:56.538Z,16.30
2019-01-29T11:53:56.524Z,14.00
2019-01-29T11:54:56.515Z,15.40
2019-01-29T11:56:04.057Z,14.60
2019-01-29T11:56:56.493Z,15.60
2019-01-29T11:57:56.488Z,15.00
2019-01-29T11:58:56.475Z,15.90
2019-01-29T11:59:56.465Z,17.50
2019-01-29T12:00:56.456Z,16.30
2019-01-29T12:01:56.445Z,16.20
2019-01-29T12:02:56.434Z,15.70
2019-01-29T12:03:56.427Z,15.20
2019-01-29T12:04:56.415Z,17.00
2019-01-29T12:05:56.406Z,13.40
2019-01-29T12:06:56.395Z,13.90
2019-01-29T12:07:56.385Z,13.70
2019-01-29T12:08:56.377Z,13.90
2019-01-29T12:09:56.599Z,11.90
2019-01-29T12:10:56.355Z,14.00
2019-01-29T12:11:56.346Z,12.20
2019-01-29T12:12:56.346Z,12.50
2019-01-29T12:13:56.329Z,11.70
2019-01-29T12:14:56.321Z,13.20
2019-01-29T12:15:56.306Z,11.80
2019-01-29T12:16:56.297Z,12.50
2019-01-29T12:17:56.287Z,11.00
2019-01-29T12:18:56.276Z,13.00
2019-01-29T12:19:56.269Z,9.90
2019-01-29T12:20:56.258Z,9.80
2019-01-29T12:21:56.250Z,13.40
2019-01-29T12:22:56.243Z,11.90
2019-01-29T12:23:56.231Z,13.30
2019-01-29T12:24:56.221Z,9.20
2019-01-29T12:25:56.212Z,11.80
2019-01-29T12:26:56.200Z,12.00
2019-01-29T12:27:56.191Z,11.70
2019-01-29T12:28:56.181Z,10.80
2019-01-29T12:29:56.172Z,11.80
2019-01-29T12:30:56.162Z,13.60
2019-01-29T12:31:56.155Z,10.90
2019-01-29T12:32:56.144Z,11.00
2019-01-29T12:33:56.132Z,10.80
2019-01-29T12:34:56.127Z,11.50
2019-01-29T12:35:56.113Z,11.60
2019-01-29T12:36:56.105Z,11.60
2019-01-29T12:37:56.094Z,11.30
2019-01-29T12:38:56.086Z,11.60
2019-01-29T12:39:56.075Z,13.80
2019-01-29T12:40:56.067Z,10.50
2019-01-29T12:41:56.057Z,11.30
2019-01-29T12:42:56.049Z,12.10
2019-01-29T12:43:56.036Z,12.90
2019-01-29T12:44:56.027Z,9.10
2019-01-29T12:45:56.018Z,11.20
2019-01-29T12:46:56.010Z,11.30
2019-01-29T12:47:55.998Z,10.50
2019-01-29T12:48:55.988Z,10.10
2019-01-29T12:49:55.978Z,10.90
2019-01-29T12:50:55.968Z,10.60
2019-01-29T12:51:55.959Z,10.90
2019-01-29T12:52:55.949Z,11.30